sensor_id;sensor_type;location;lat;lon;timestamp;pressure;altitude;pressure_sealevel;temperature;humidity
63439;BME280;49567;48.958;8.294;2022-07-10T00:00:28;101061.75;;;22.50;55.68
63439;BME280;49567;48.958;8.294;2022-07-10T00:02:55;101057.88;;;22.51;55.69
63439;BME280;49567;48.958;8.294;2022-07-10T00:05:21;101063.69;;;22.49;55.67
63439;BME280;49567;48.958;8.294;2022-07-10T00:07:48;101054.44;;;22.45;55.83
63439;BME280;49567;48.958;8.294;2022-07-10T00:10:14;101053.91;;;22.43;55.82
63439;BME280;49567;48.958;8.294;2022-07-10T00:12:40;101063.81;;;22.44;55.84
63439;BME280;49567;48.958;8.294;2022-07-10T00:15:06;101060.78;;;22.46;55.56
63439;BME280;49567;48.958;8.294;2022-07-10T00:17:32;101058.81;;;22.46;55.58
63439;BME280;49567;48.958;8.294;2022-07-10T00:19:57;101054.13;;;22.33;56.02
63439;BME280;49567;48.958;8.294;2022-07-10T00:22:23;101048.50;;;22.24;56.26
63439;BME280;49567;48.958;8.294;2022-07-10T00:24:48;101052.31;;;22.15;56.53
63439;BME280;49567;48.958;8.294;2022-07-10T00:27:16;101049.00;;;22.13;56.70
63439;BME280;49567;48.958;8.294;2022-07-10T00:29:41;101039.63;;;22.14;56.79
63439;BME280;49567;48.958;8.294;2022-07-10T00:32:07;101048.22;;;22.12;56.73
63439;BME280;49567;48.958;8.294;2022-07-10T00:34:32;101042.69;;;22.12;56.79
63439;BME280;49567;48.958;8.294;2022-07-10T00:36:58;101045.97;;;22.14;56.73
63439;BME280;49567;48.958;8.294;2022-07-10T00:39:23;101047.59;;;22.15;56.82
63439;BME280;49567;48.958;8.294;2022-07-10T00:41:49;101045.66;;;22.16;56.86
63439;BME280;49567;48.958;8.294;2022-07-10T00:44:14;101043.31;;;22.09;56.83
63439;BME280;49567;48.958;8.294;2022-07-10T00:46:40;101046.88;;;22.10;56.56
63439;BME280;49567;48.958;8.294;2022-07-10T00:49:05;101036.16;;;22.08;56.74
63439;BME280;49567;48.958;8.294;2022-07-10T00:51:31;101035.03;;;22.09;56.48
63439;BME280;49567;48.958;8.294;2022-07-10T00:53:58;101041.69;;;22.08;56.54
63439;BME280;49567;48.958;8.294;2022-07-10T00:56:25;101040.84;;;22.08;56.59
63439;BME280;49567;48.958;8.294;2022-07-10T00:58:51;101035.63;;;22.06;56.74
63439;BME280;49567;48.958;8.294;2022-07-10T01:01:17;101037.59;;;22.06;56.94
63439;BME280;49567;48.958;8.294;2022-07-10T01:03:44;101040.16;;;22.02;56.75
63439;BME280;49567;48.958;8.294;2022-07-10T01:06:11;101035.25;;;21.99;56.76
63439;BME280;49567;48.958;8.294;2022-07-10T01:08:36;101043.31;;;21.96;56.73
63439;BME280;49567;48.958;8.294;2022-07-10T01:11:02;101041.97;;;21.93;56.67
63439;BME280;49567;48.958;8.294;2022-07-10T01:13:28;101038.78;;;21.86;56.31
63439;BME280;49567;48.958;8.294;2022-07-10T01:15:53;101039.00;;;21.76;56.33
63439;BME280;49567;48.958;8.294;2022-07-10T01:18:19;101034.69;;;21.70;56.12
63439;BME280;49567;48.958;8.294;2022-07-10T01:20:45;101030.59;;;21.67;56.15
63439;BME280;49567;48.958;8.294;2022-07-10T01:23:10;101039.88;;;21.58;55.99
63439;BME280;49567;48.958;8.294;2022-07-10T01:25:36;101049.34;;;21.52;56.14
63439;BME280;49567;48.958;8.294;2022-07-10T01:28:01;101043.41;;;21.45;55.83
63439;BME280;49567;48.958;8.294;2022-07-10T01:30:27;101045.75;;;21.38;55.77
63439;BME280;49567;48.958;8.294;2022-07-10T01:32:52;101043.47;;;21.26;55.34
63439;BME280;49567;48.958;8.294;2022-07-10T01:35:18;101042.16;;;21.24;55.32
63439;BME280;49567;48.958;8.294;2022-07-10T01:37:43;101039.00;;;21.30;54.90
63439;BME280;49567;48.958;8.294;2022-07-10T01:40:11;101049.50;;;21.28;54.31
63439;BME280;49567;48.958;8.294;2022-07-10T01:42:37;101049.88;;;21.21;53.94
63439;BME280;49567;48.958;8.294;2022-07-10T01:45:09;101051.22;;;21.24;53.98
63439;BME280;49567;48.958;8.294;2022-07-10T01:47:35;101050.50;;;21.18;53.91
63439;BME280;49567;48.958;8.294;2022-07-10T01:50:00;101050.06;;;21.11;53.87
63439;BME280;49567;48.958;8.294;2022-07-10T01:52:26;101061.84;;;21.17;53.95
63439;BME280;49567;48.958;8.294;2022-07-10T01:54:52;101062.13;;;21.15;53.57
63439;BME280;49567;48.958;8.294;2022-07-10T01:57:18;101071.34;;;21.06;53.59
63439;BME280;49567;48.958;8.294;2022-07-10T01:59:44;101063.56;;;21.08;53.34
63439;BME280;49567;48.958;8.294;2022-07-10T02:02:09;101063.16;;;21.01;53.34
63439;BME280;49567;48.958;8.294;2022-07-10T02:04:35;101066.09;;;21.04;53.45
63439;BME280;49567;48.958;8.294;2022-07-10T02:07:10;101068.69;;;21.01;53.47
63439;BME280;49567;48.958;8.294;2022-07-10T02:09:36;101063.22;;;20.96;53.54
63439;BME280;49567;48.958;8.294;2022-07-10T02:12:02;101071.81;;;20.94;53.60
63439;BME280;49567;48.958;8.294;2022-07-10T02:14:29;101071.03;;;20.89;53.88
63439;BME280;49567;48.958;8.294;2022-07-10T02:16:54;101075.72;;;20.88;53.73
63439;BME280;49567;48.958;8.294;2022-07-10T02:19:21;101087.66;;;20.84;53.67
63439;BME280;49567;48.958;8.294;2022-07-10T02:21:47;101089.47;;;20.75;53.90
63439;BME280;49567;48.958;8.294;2022-07-10T02:24:13;101089.22;;;20.71;53.83
63439;BME280;49567;48.958;8.294;2022-07-10T02:26:38;101089.59;;;20.64;54.18
63439;BME280;49567;48.958;8.294;2022-07-10T02:29:04;101086.06;;;20.59;53.97
63439;BME280;49567;48.958;8.294;2022-07-10T02:31:29;101076.19;;;20.58;54.00
63439;BME280;49567;48.958;8.294;2022-07-10T02:33:54;101082.81;;;20.57;54.20
63439;BME280;49567;48.958;8.294;2022-07-10T02:36:20;101078.94;;;20.58;53.73
63439;BME280;49567;48.958;8.294;2022-07-10T02:38:46;101078.50;;;20.51;53.95
63439;BME280;49567;48.958;8.294;2022-07-10T02:41:12;101079.38;;;20.46;54.24
63439;BME280;49567;48.958;8.294;2022-07-10T02:43:38;101076.09;;;20.44;54.27
63439;BME280;49567;48.958;8.294;2022-07-10T02:46:04;101075.78;;;20.46;54.23
63439;BME280;49567;48.958;8.294;2022-07-10T02:48:30;101083.81;;;20.42;54.20
63439;BME280;49567;48.958;8.294;2022-07-10T02:50:55;101076.75;;;20.36;54.21
63439;BME280;49567;48.958;8.294;2022-07-10T02:53:21;101085.38;;;20.30;54.31
63439;BME280;49567;48.958;8.294;2022-07-10T02:55:46;101087.63;;;20.23;54.46
63439;BME280;49567;48.958;8.294;2022-07-10T02:58:13;101089.84;;;20.20;54.58
63439;BME280;49567;48.958;8.294;2022-07-10T03:00:41;101085.22;;;20.16;54.82
63439;BME280;49567;48.958;8.294;2022-07-10T03:03:07;101088.56;;;20.13;54.86
63439;BME280;49567;48.958;8.294;2022-07-10T03:05:33;101093.22;;;20.12;55.24
63439;BME280;49567;48.958;8.294;2022-07-10T03:07:59;101091.78;;;20.20;54.78
63439;BME280;49567;48.958;8.294;2022-07-10T03:10:24;101090.91;;;20.25;54.68
63439;BME280;49567;48.958;8.294;2022-07-10T03:12:50;101093.72;;;20.19;54.60
63439;BME280;49567;48.958;8.294;2022-07-10T03:15:16;101100.84;;;20.20;54.54
63439;BME280;49567;48.958;8.294;2022-07-10T03:17:43;101091.25;;;20.18;54.54
63439;BME280;49567;48.958;8.294;2022-07-10T03:20:09;101091.97;;;20.05;54.84
63439;BME280;49567;48.958;8.294;2022-07-10T03:22:36;101094.41;;;20.06;54.92
63439;BME280;49567;48.958;8.294;2022-07-10T03:25:02;101092.72;;;20.10;54.99
63439;BME280;49567;48.958;8.294;2022-07-10T03:27:28;101092.78;;;20.05;54.78
63439;BME280;49567;48.958;8.294;2022-07-10T03:29:53;101090.09;;;20.00;55.14
63439;BME280;49567;48.958;8.294;2022-07-10T03:32:19;101095.06;;;19.98;55.07
63439;BME280;49567;48.958;8.294;2022-07-10T03:34:44;101102.19;;;19.99;55.12
63439;BME280;49567;48.958;8.294;2022-07-10T03:37:10;101094.75;;;20.00;55.14
63439;BME280;49567;48.958;8.294;2022-07-10T03:39:36;101095.41;;;19.92;55.18
63439;BME280;49567;48.958;8.294;2022-07-10T03:42:02;101093.75;;;19.91;55.45
63439;BME280;49567;48.958;8.294;2022-07-10T03:44:27;101105.25;;;19.98;55.31
63439;BME280;49567;48.958;8.294;2022-07-10T03:46:53;101103.59;;;19.97;55.11
63439;BME280;49567;48.958;8.294;2022-07-10T03:49:20;101095.91;;;19.99;55.21
63439;BME280;49567;48.958;8.294;2022-07-10T03:51:45;101102.16;;;20.04;54.93
63439;BME280;49567;48.958;8.294;2022-07-10T03:54:11;101108.03;;;19.93;55.07
63439;BME280;49567;48.958;8.294;2022-07-10T03:56:37;101111.38;;;19.90;55.25
63439;BME280;49567;48.958;8.294;2022-07-10T03:59:21;101110.88;;;19.83;55.08
63439;BME280;49567;48.958;8.294;2022-07-10T04:01:47;101107.38;;;19.77;55.33
63439;BME280;49567;48.958;8.294;2022-07-10T04:04:13;101107.63;;;19.81;55.04
63439;BME280;49567;48.958;8.294;2022-07-10T04:06:38;101113.13;;;19.81;54.96
63439;BME280;49567;48.958;8.294;2022-07-10T04:09:05;101113.94;;;19.81;54.95
63439;BME280;49567;48.958;8.294;2022-07-10T04:11:33;101113.97;;;19.76;54.76
63439;BME280;49567;48.958;8.294;2022-07-10T04:14:00;101103.81;;;19.77;54.59
63439;BME280;49567;48.958;8.294;2022-07-10T04:16:26;101114.19;;;19.85;54.65
63439;BME280;49567;48.958;8.294;2022-07-10T04:18:52;101110.63;;;19.84;54.53
63439;BME280;49567;48.958;8.294;2022-07-10T04:21:19;101112.06;;;19.77;54.45
63439;BME280;49567;48.958;8.294;2022-07-10T04:23:47;101112.59;;;19.79;54.65
63439;BME280;49567;48.958;8.294;2022-07-10T04:26:13;101112.59;;;19.79;54.36
63439;BME280;49567;48.958;8.294;2022-07-10T04:28:40;101115.63;;;19.77;54.52
63439;BME280;49567;48.958;8.294;2022-07-10T04:31:08;101106.91;;;19.70;54.50
63439;BME280;49567;48.958;8.294;2022-07-10T04:33:35;101111.56;;;19.69;54.31
63439;BME280;49567;48.958;8.294;2022-07-10T04:36:01;101113.22;;;19.71;54.35
63439;BME280;49567;48.958;8.294;2022-07-10T04:38:27;101114.31;;;19.69;54.31
63439;BME280;49567;48.958;8.294;2022-07-10T04:40:54;101113.75;;;19.73;54.28
63439;BME280;49567;48.958;8.294;2022-07-10T04:43:23;101113.13;;;19.52;54.58
63439;BME280;49567;48.958;8.294;2022-07-10T04:45:50;101116.22;;;19.45;54.87
63439;BME280;49567;48.958;8.294;2022-07-10T04:48:17;101117.31;;;19.44;54.47
63439;BME280;49567;48.958;8.294;2022-07-10T04:50:43;101108.22;;;19.44;54.72
63439;BME280;49567;48.958;8.294;2022-07-10T04:53:08;101117.81;;;19.46;54.41
63439;BME280;49567;48.958;8.294;2022-07-10T04:55:35;101116.72;;;19.47;54.22
63439;BME280;49567;48.958;8.294;2022-07-10T04:58:02;101123.00;;;19.53;54.09
63439;BME280;49567;48.958;8.294;2022-07-10T05:00:28;101129.63;;;19.52;54.10
63439;BME280;49567;48.958;8.294;2022-07-10T05:02:57;101127.72;;;19.47;54.07
63439;BME280;49567;48.958;8.294;2022-07-10T05:05:24;101130.22;;;19.44;54.38
63439;BME280;49567;48.958;8.294;2022-07-10T05:07:51;101132.94;;;19.49;54.20
63439;BME280;49567;48.958;8.294;2022-07-10T05:10:17;101133.00;;;19.39;54.58
63439;BME280;49567;48.958;8.294;2022-07-10T05:12:43;101137.94;;;19.37;54.60
63439;BME280;49567;48.958;8.294;2022-07-10T05:15:09;101136.56;;;19.44;54.32
63439;BME280;49567;48.958;8.294;2022-07-10T05:17:36;101137.03;;;19.51;54.24
63439;BME280;49567;48.958;8.294;2022-07-10T05:20:06;101136.47;;;19.54;54.06
63439;BME280;49567;48.958;8.294;2022-07-10T05:22:34;101135.38;;;19.55;53.99
63439;BME280;49567;48.958;8.294;2022-07-10T05:24:59;101141.91;;;19.59;53.95
63439;BME280;49567;48.958;8.294;2022-07-10T05:27:30;101141.13;;;19.59;53.77
63439;BME280;49567;48.958;8.294;2022-07-10T05:29:57;101147.75;;;19.53;53.78
63439;BME280;49567;48.958;8.294;2022-07-10T05:32:22;101147.53;;;19.49;54.10
63439;BME280;49567;48.958;8.294;2022-07-10T05:34:51;101146.38;;;19.55;53.92
63439;BME280;49567;48.958;8.294;2022-07-10T05:37:19;101154.06;;;19.53;53.97
63439;BME280;49567;48.958;8.294;2022-07-10T05:39:45;101153.47;;;19.61;53.53
63439;BME280;49567;48.958;8.294;2022-07-10T05:42:13;101151.78;;;19.65;53.70
63439;BME280;49567;48.958;8.294;2022-07-10T05:44:39;101145.38;;;19.75;53.10
63439;BME280;49567;48.958;8.294;2022-07-10T05:47:05;101144.22;;;19.76;53.36
63439;BME280;49567;48.958;8.294;2022-07-10T05:49:31;101137.88;;;19.81;52.87
63439;BME280;49567;48.958;8.294;2022-07-10T05:51:57;101139.53;;;19.82;52.79
63439;BME280;49567;48.958;8.294;2022-07-10T05:54:25;101152.94;;;19.88;52.75
63439;BME280;49567;48.958;8.294;2022-07-10T05:56:51;101148.19;;;19.94;52.51
63439;BME280;49567;48.958;8.294;2022-07-10T05:59:16;101159.97;;;19.99;52.53
63439;BME280;49567;48.958;8.294;2022-07-10T06:01:41;101165.47;;;19.99;52.29
63439;BME280;49567;48.958;8.294;2022-07-10T06:04:07;101157.22;;;19.99;52.11
63439;BME280;49567;48.958;8.294;2022-07-10T06:06:32;101151.22;;;19.92;52.28
63439;BME280;49567;48.958;8.294;2022-07-10T06:08:58;101166.06;;;19.96;52.07
63439;BME280;49567;48.958;8.294;2022-07-10T06:11:25;101161.38;;;19.97;51.91
63439;BME280;49567;48.958;8.294;2022-07-10T06:13:51;101168.53;;;19.98;51.94
63439;BME280;49567;48.958;8.294;2022-07-10T06:16:18;101169.53;;;20.07;51.74
63439;BME280;49567;48.958;8.294;2022-07-10T06:18:45;101174.94;;;20.17;51.62
63439;BME280;49567;48.958;8.294;2022-07-10T06:21:13;101174.06;;;20.22;51.53
63439;BME280;49567;48.958;8.294;2022-07-10T06:23:38;101178.16;;;20.24;51.41
63439;BME280;49567;48.958;8.294;2022-07-10T06:26:03;101186.69;;;20.23;51.25
63439;BME280;49567;48.958;8.294;2022-07-10T06:28:29;101188.94;;;20.20;51.32
63439;BME280;49567;48.958;8.294;2022-07-10T06:30:54;101192.84;;;20.14;51.29
63439;BME280;49567;48.958;8.294;2022-07-10T06:33:19;101188.16;;;20.15;51.65
63439;BME280;49567;48.958;8.294;2022-07-10T06:35:44;101195.88;;;20.13;51.46
63439;BME280;49567;48.958;8.294;2022-07-10T06:38:10;101195.03;;;20.17;51.48
63439;BME280;49567;48.958;8.294;2022-07-10T06:40:37;101191.44;;;20.17;51.21
63439;BME280;49567;48.958;8.294;2022-07-10T06:43:03;101198.63;;;20.13;50.87
63439;BME280;49567;48.958;8.294;2022-07-10T06:45:28;101193.19;;;20.08;51.19
63439;BME280;49567;48.958;8.294;2022-07-10T06:47:54;101195.47;;;20.01;51.11
63439;BME280;49567;48.958;8.294;2022-07-10T06:50:28;101197.03;;;20.07;51.01
63439;BME280;49567;48.958;8.294;2022-07-10T06:52:55;101195.41;;;20.06;51.04
63439;BME280;49567;48.958;8.294;2022-07-10T06:55:22;101197.56;;;20.09;51.21
63439;BME280;49567;48.958;8.294;2022-07-10T06:57:48;101186.03;;;20.07;50.82
63439;BME280;49567;48.958;8.294;2022-07-10T07:00:14;101192.69;;;20.01;50.64
63439;BME280;49567;48.958;8.294;2022-07-10T07:02:40;101195.50;;;19.96;50.67
63439;BME280;49567;48.958;8.294;2022-07-10T07:05:06;101191.63;;;19.97;50.61
63439;BME280;49567;48.958;8.294;2022-07-10T07:07:32;101190.47;;;20.03;50.64
63439;BME280;49567;48.958;8.294;2022-07-10T07:10:00;101192.88;;;20.09;50.59
63439;BME280;49567;48.958;8.294;2022-07-10T07:12:26;101195.94;;;20.08;50.40
63439;BME280;49567;48.958;8.294;2022-07-10T07:14:51;101193.44;;;20.11;50.30
63439;BME280;49567;48.958;8.294;2022-07-10T07:17:16;101197.53;;;20.14;49.90
63439;BME280;49567;48.958;8.294;2022-07-10T07:19:51;101195.19;;;20.26;49.53
63439;BME280;49567;48.958;8.294;2022-07-10T07:22:36;101201.09;;;20.43;49.13
63439;BME280;49567;48.958;8.294;2022-07-10T07:25:20;101197.72;;;20.51;48.29
63439;BME280;49567;48.958;8.294;2022-07-10T07:27:45;101200.03;;;20.63;48.13
63439;BME280;49567;48.958;8.294;2022-07-10T07:30:13;101198.81;;;20.74;46.91
63439;BME280;49567;48.958;8.294;2022-07-10T07:32:43;101199.63;;;20.75;46.22
63439;BME280;49567;48.958;8.294;2022-07-10T07:35:09;101204.84;;;20.76;46.11
63439;BME280;49567;48.958;8.294;2022-07-10T07:37:42;101195.69;;;20.81;46.06
63439;BME280;49567;48.958;8.294;2022-07-10T07:40:10;101203.38;;;20.84;45.75
63439;BME280;49567;48.958;8.294;2022-07-10T07:42:36;101197.41;;;20.77;46.05
63439;BME280;49567;48.958;8.294;2022-07-10T07:45:03;101207.19;;;20.88;46.12
63439;BME280;49567;48.958;8.294;2022-07-10T07:47:29;101204.59;;;20.96;45.91
63439;BME280;49567;48.958;8.294;2022-07-10T07:49:54;101204.81;;;21.00;45.71
63439;BME280;49567;48.958;8.294;2022-07-10T07:52:20;101213.59;;;21.02;45.38
63439;BME280;49567;48.958;8.294;2022-07-10T07:54:45;101215.13;;;20.89;45.04
63439;BME280;49567;48.958;8.294;2022-07-10T07:57:10;101204.47;;;20.83;45.14
63439;BME280;49567;48.958;8.294;2022-07-10T07:59:36;101200.66;;;20.79;45.03
63439;BME280;49567;48.958;8.294;2022-07-10T08:02:01;101202.69;;;20.73;45.47
63439;BME280;49567;48.958;8.294;2022-07-10T08:04:26;101206.84;;;20.47;45.68
63439;BME280;49567;48.958;8.294;2022-07-10T08:06:52;101204.09;;;20.47;46.09
63439;BME280;49567;48.958;8.294;2022-07-10T08:09:19;101195.75;;;20.52;45.82
63439;BME280;49567;48.958;8.294;2022-07-10T08:11:44;101187.50;;;20.52;45.83
63439;BME280;49567;48.958;8.294;2022-07-10T08:14:10;101180.66;;;20.49;45.79
63439;BME280;49567;48.958;8.294;2022-07-10T08:16:35;101191.91;;;20.53;45.93
63439;BME280;49567;48.958;8.294;2022-07-10T08:19:00;101188.44;;;20.66;45.97
63439;BME280;49567;48.958;8.294;2022-07-10T08:21:25;101186.53;;;20.85;45.78
63439;BME280;49567;48.958;8.294;2022-07-10T08:23:51;101177.47;;;21.03;45.48
63439;BME280;49567;48.958;8.294;2022-07-10T08:26:18;101189.00;;;21.05;45.23
63439;BME280;49567;48.958;8.294;2022-07-10T08:28:43;101194.63;;;21.00;45.25
63439;BME280;49567;48.958;8.294;2022-07-10T08:31:08;101184.69;;;20.99;45.05
63439;BME280;49567;48.958;8.294;2022-07-10T08:33:33;101190.44;;;21.03;45.08
63439;BME280;49567;48.958;8.294;2022-07-10T08:35:59;101182.53;;;20.96;44.95
63439;BME280;49567;48.958;8.294;2022-07-10T08:38:25;101185.66;;;20.90;44.80
63439;BME280;49567;48.958;8.294;2022-07-10T08:40:53;101191.53;;;20.83;44.87
63439;BME280;49567;48.958;8.294;2022-07-10T08:43:22;101187.09;;;20.63;44.70
63439;BME280;49567;48.958;8.294;2022-07-10T08:45:47;101187.34;;;20.67;45.26
63439;BME280;49567;48.958;8.294;2022-07-10T08:48:15;101187.59;;;20.89;44.83
63439;BME280;49567;48.958;8.294;2022-07-10T08:50:44;101182.16;;;21.03;44.06
63439;BME280;49567;48.958;8.294;2022-07-10T08:53:15;101177.66;;;21.12;43.65
63439;BME280;49567;48.958;8.294;2022-07-10T08:55:41;101181.59;;;21.25;43.06
63439;BME280;49567;48.958;8.294;2022-07-10T08:58:08;101180.25;;;21.22;43.35
63439;BME280;49567;48.958;8.294;2022-07-10T09:00:33;101180.34;;;21.36;42.92
63439;BME280;49567;48.958;8.294;2022-07-10T09:02:59;101182.28;;;21.35;42.25
63439;BME280;49567;48.958;8.294;2022-07-10T09:05:25;101176.53;;;21.32;41.95
63439;BME280;49567;48.958;8.294;2022-07-10T09:07:51;101164.69;;;21.50;42.01
63439;BME280;49567;48.958;8.294;2022-07-10T09:10:20;101175.63;;;21.55;41.51
63439;BME280;49567;48.958;8.294;2022-07-10T09:12:54;101173.53;;;21.65;41.58
63439;BME280;49567;48.958;8.294;2022-07-10T09:15:21;101179.19;;;21.88;40.55
63439;BME280;49567;48.958;8.294;2022-07-10T09:17:56;101176.78;;;22.00;39.58
63439;BME280;49567;48.958;8.294;2022-07-10T09:20:32;101177.78;;;21.90;39.39
63439;BME280;49567;48.958;8.294;2022-07-10T09:22:59;101178.84;;;21.94;39.05
63439;BME280;49567;48.958;8.294;2022-07-10T09:25:33;101174.16;;;22.08;39.34
63439;BME280;49567;48.958;8.294;2022-07-10T09:27:59;101180.44;;;22.28;39.22
63439;BME280;49567;48.958;8.294;2022-07-10T09:30:35;101176.44;;;22.34;38.74
63439;BME280;49567;48.958;8.294;2022-07-10T09:33:23;101176.88;;;22.54;38.34
63439;BME280;49567;48.958;8.294;2022-07-10T09:35:55;101184.03;;;22.83;38.08
63439;BME280;49567;48.958;8.294;2022-07-10T09:41:19;101181.78;;;23.34;36.88
63439;BME280;49567;48.958;8.294;2022-07-10T09:43:54;101184.88;;;23.55;36.46
63439;BME280;49567;48.958;8.294;2022-07-10T09:46:22;101188.41;;;23.69;35.92
63439;BME280;49567;48.958;8.294;2022-07-10T09:49:04;101183.47;;;23.57;35.78
63439;BME280;49567;48.958;8.294;2022-07-10T09:51:33;101185.03;;;23.36;36.11
63439;BME280;49567;48.958;8.294;2022-07-10T09:54:04;101187.59;;;23.46;36.01
63439;BME280;49567;48.958;8.294;2022-07-10T09:56:39;101184.25;;;23.80;35.59
63439;BME280;49567;48.958;8.294;2022-07-10T09:59:09;101185.81;;;23.95;35.04
63439;BME280;49567;48.958;8.294;2022-07-10T10:01:36;101186.69;;;24.04;34.63
63439;BME280;49567;48.958;8.294;2022-07-10T10:04:03;101181.78;;;24.23;34.49
63439;BME280;49567;48.958;8.294;2022-07-10T10:06:30;101176.44;;;24.35;34.32
63439;BME280;49567;48.958;8.294;2022-07-10T10:09:04;101179.16;;;24.66;33.25
63439;BME280;49567;48.958;8.294;2022-07-10T10:11:32;101165.63;;;25.55;31.86
63439;BME280;49567;48.958;8.294;2022-07-10T10:13:58;101167.53;;;26.73;30.26
63439;BME280;49567;48.958;8.294;2022-07-10T10:16:27;101167.81;;;27.84;28.19
63439;BME280;49567;48.958;8.294;2022-07-10T10:18:52;101166.56;;;28.51;26.92
63439;BME280;49567;48.958;8.294;2022-07-10T10:21:38;101174.00;;;29.47;26.09
63439;BME280;49567;48.958;8.294;2022-07-10T10:24:03;101168.25;;;30.58;24.40
63439;BME280;49567;48.958;8.294;2022-07-10T10:26:29;101167.66;;;31.54;23.20
63439;BME280;49567;48.958;8.294;2022-07-10T10:28:57;101162.47;;;32.39;22.00
63439;BME280;49567;48.958;8.294;2022-07-10T10:31:24;101167.66;;;33.13;21.10
63439;BME280;49567;48.958;8.294;2022-07-10T10:33:54;101157.47;;;33.64;20.50
63439;BME280;49567;48.958;8.294;2022-07-10T10:39:19;101161.75;;;33.88;20.05
63439;BME280;49567;48.958;8.294;2022-07-10T10:49:17;101145.38;;;34.96;18.74
63439;BME280;49567;48.958;8.294;2022-07-10T10:52:03;101144.59;;;34.99;18.92
63439;BME280;49567;48.958;8.294;2022-07-10T10:59:57;101153.22;;;35.30;18.38
63439;BME280;49567;48.958;8.294;2022-07-10T11:05:20;101151.84;;;35.86;17.54
63439;BME280;49567;48.958;8.294;2022-07-10T11:07:53;101164.38;;;36.10;17.65
63439;BME280;49567;48.958;8.294;2022-07-10T11:10:44;101151.06;;;36.10;17.20
63439;BME280;49567;48.958;8.294;2022-07-10T11:13:14;101145.44;;;36.28;17.35
63439;BME280;49567;48.958;8.294;2022-07-10T11:15:47;101148.28;;;36.46;16.99
63439;BME280;49567;48.958;8.294;2022-07-10T11:18:16;101139.00;;;36.45;16.65
63439;BME280;49567;48.958;8.294;2022-07-10T11:20:45;101136.53;;;36.75;16.99
63439;BME280;49567;48.958;8.294;2022-07-10T11:25:42;101144.06;;;37.31;16.18
63439;BME280;49567;48.958;8.294;2022-07-10T11:28:21;101150.50;;;37.35;16.11
63439;BME280;49567;48.958;8.294;2022-07-10T11:30:50;101138.78;;;37.40;15.92
63439;BME280;49567;48.958;8.294;2022-07-10T11:33:16;101136.06;;;37.12;15.83
63439;BME280;49567;48.958;8.294;2022-07-10T11:35:46;101134.84;;;37.17;15.81
63439;BME280;49567;48.958;8.294;2022-07-10T11:38:11;101132.69;;;37.46;15.82
63439;BME280;49567;48.958;8.294;2022-07-10T11:40:37;101132.31;;;37.40;15.56
63439;BME280;49567;48.958;8.294;2022-07-10T11:43:03;101131.91;;;37.41;16.24
63439;BME280;49567;48.958;8.294;2022-07-10T11:45:35;101139.34;;;36.93;16.08
63439;BME280;49567;48.958;8.294;2022-07-10T11:48:03;101132.84;;;37.00;16.21
63439;BME280;49567;48.958;8.294;2022-07-10T11:50:34;101128.41;;;37.09;16.41
63439;BME280;49567;48.958;8.294;2022-07-10T11:53:01;101133.66;;;37.11;15.73
63439;BME280;49567;48.958;8.294;2022-07-10T11:55:26;101126.41;;;36.92;15.88
63439;BME280;49567;48.958;8.294;2022-07-10T11:57:52;101127.22;;;37.03;15.76
63439;BME280;49567;48.958;8.294;2022-07-10T12:00:25;101121.53;;;37.17;15.60
63439;BME280;49567;48.958;8.294;2022-07-10T12:02:52;101131.19;;;37.20;16.09
63439;BME280;49567;48.958;8.294;2022-07-10T12:05:37;101132.38;;;37.26;15.55
63439;BME280;49567;48.958;8.294;2022-07-10T12:08:04;101131.72;;;36.69;15.89
63439;BME280;49567;48.958;8.294;2022-07-10T12:10:30;101127.28;;;36.39;16.50
63439;BME280;49567;48.958;8.294;2022-07-10T12:13:23;101138.19;;;36.37;16.48
63439;BME280;49567;48.958;8.294;2022-07-10T12:15:48;101128.53;;;36.38;16.44
63439;BME280;49567;48.958;8.294;2022-07-10T12:18:18;101120.81;;;36.53;16.29
63439;BME280;49567;48.958;8.294;2022-07-10T12:20:44;101121.63;;;36.39;16.41
63439;BME280;49567;48.958;8.294;2022-07-10T12:23:15;101127.69;;;36.17;16.54
63439;BME280;49567;48.958;8.294;2022-07-10T12:25:46;101118.03;;;36.28;16.40
63439;BME280;49567;48.958;8.294;2022-07-10T12:28:13;101111.53;;;36.53;16.36
63439;BME280;49567;48.958;8.294;2022-07-10T12:30:40;101103.88;;;36.50;16.39
63439;BME280;49567;48.958;8.294;2022-07-10T12:33:11;101115.63;;;36.09;16.18
63439;BME280;49567;48.958;8.294;2022-07-10T12:35:56;101108.28;;;35.83;16.67
63439;BME280;49567;48.958;8.294;2022-07-10T12:38:24;101102.31;;;36.17;16.27
63439;BME280;49567;48.958;8.294;2022-07-10T12:40:51;101105.94;;;36.24;16.09
63439;BME280;49567;48.958;8.294;2022-07-10T12:43:30;101109.94;;;35.88;16.53
63439;BME280;49567;48.958;8.294;2022-07-10T12:46:09;101108.75;;;36.07;16.69
63439;BME280;49567;48.958;8.294;2022-07-10T12:48:35;101103.50;;;35.98;16.33
63439;BME280;49567;48.958;8.294;2022-07-10T12:51:21;101097.47;;;35.96;16.88
63439;BME280;49567;48.958;8.294;2022-07-10T12:53:46;101107.56;;;36.11;16.59
63439;BME280;49567;48.958;8.294;2022-07-10T12:56:32;101109.94;;;35.99;16.62
63439;BME280;49567;48.958;8.294;2022-07-10T12:58:59;101111.50;;;35.71;17.17
63439;BME280;49567;48.958;8.294;2022-07-10T13:01:38;101105.84;;;35.64;17.43
63439;BME280;49567;48.958;8.294;2022-07-10T13:04:07;101109.50;;;35.68;17.12
63439;BME280;49567;48.958;8.294;2022-07-10T13:06:34;101098.94;;;35.51;17.17
63439;BME280;49567;48.958;8.294;2022-07-10T13:09:01;101099.31;;;35.35;17.66
63439;BME280;49567;48.958;8.294;2022-07-10T13:11:26;101092.88;;;35.35;17.35
63439;BME280;49567;48.958;8.294;2022-07-10T13:13:52;101097.28;;;35.32;17.48
63439;BME280;49567;48.958;8.294;2022-07-10T13:16:18;101094.53;;;35.47;17.71